Time;durP1;ratioP1;P1;durP2;ratioP2;P2;SDS_P1;SDS_P2;PMS_P1;PMS_P2;Temp;Humidity;BMP_temperature;BMP_pressure;BME280_temperature;BME280_humidity;BME280_pressure;Samples;Min_cycle;Max_cycle;Signal;HPM_P1;HPM_P2
2022/08/17 00:01:59;;;;;;;12.27;8.00;;;;;;;-148.88;66.44;74367.81;4994709;28;20596;-87
2022/08/17 00:04:25;;;;;;;9.13;7.90;;;;;;;-148.88;66.56;74367.81;4994538;28;20041;-87
2022/08/17 00:06:52;;;;;;;9.55;8.15;;;;;;;-148.88;66.31;74373.91;4994533;28;20167;-87
2022/08/17 00:09:17;;;;;;;11.10;8.10;;;;;;;-148.88;66.15;74367.81;4994209;28;20027;-86
2022/08/17 00:11:43;;;;;;;9.85;8.77;;;;;;;-148.88;66.83;74355.63;4994617;28;20026;-86
2022/08/17 00:14:13;;;;;;;11.73;9.10;;;;;;;-148.88;66.63;74347.50;4994342;28;20034;-87
2022/08/17 00:16:42;;;;;;;11.98;9.15;;;;;;;-148.88;67.00;74349.53;4994198;28;20029;-87
2022/08/17 00:19:12;;;;;;;9.75;8.20;;;;;;;-148.88;66.89;74337.34;4993971;28;20093;-87
2022/08/17 00:21:40;;;;;;;11.80;9.10;;;;;;;-148.88;67.12;74335.31;4993920;28;20030;-87
2022/08/17 00:24:05;;;;;;;12.30;8.93;;;;;;;-148.88;67.24;74335.31;4993838;28;20088;-87
2022/08/17 00:26:31;;;;;;;13.02;9.07;;;;;;;-148.88;67.49;74349.53;4993472;28;20444;-87
2022/08/17 00:28:57;;;;;;;10.45;8.55;;;;;;;-148.88;68.11;74351.56;4993943;28;20019;-87
2022/08/17 00:31:23;;;;;;;14.85;11.07;;;;;;;-148.88;71.04;74382.03;4993681;28;20027;-87
2022/08/17 00:33:48;;;;;;;15.05;12.93;;;;;;;-148.88;73.45;74384.06;4992528;28;20029;-86
2022/08/17 00:36:15;;;;;;;13.52;12.13;;;;;;;-148.88;74.37;74404.38;4993659;28;20026;-87
2022/08/17 00:38:41;;;;;;;15.57;11.93;;;;;;;-148.88;75.39;74400.31;4992623;28;20026;-86
2022/08/17 00:41:11;;;;;;;14.57;12.45;;;;;;;-148.88;75.99;74418.56;4994237;28;20084;-87
2022/08/17 00:43:43;;;;;;;14.52;12.68;;;;;;;-148.88;75.63;74422.63;4993491;28;20592;-86
2022/08/17 00:46:18;;;;;;;14.13;12.25;;;;;;;-148.88;76.59;74432.78;4992417;28;20026;-87
2022/08/17 00:48:43;;;;;;;13.88;12.32;;;;;;;-148.88;76.42;74428.72;4993432;28;20485;-86
2022/08/17 00:51:21;;;;;;;15.65;11.80;;;;;;;-148.88;77.01;74428.72;4993499;28;20030;-86
2022/08/17 00:53:57;;;;;;;13.35;11.32;;;;;;;-148.88;76.55;74432.78;4993622;28;20033;-86
2022/08/17 00:56:34;;;;;;;14.75;12.27;;;;;;;-148.88;77.75;74455.13;4993798;28;20097;-87
2022/08/17 00:59:03;;;;;;;15.30;11.65;;;;;;;-148.88;77.40;74444.97;4993723;28;20025;-87
2022/08/17 01:01:30;;;;;;;12.43;11.13;;;;;;;-148.88;76.59;74447.00;4993591;28;20026;-86
2022/08/17 01:03:56;;;;;;;13.77;10.95;;;;;;;-148.88;77.05;74457.16;4992862;28;20458;-86
2022/08/17 01:06:22;;;;;;;12.48;10.68;;;;;;;-148.88;76.65;74447.00;4993357;28;20085;-87
2022/08/17 01:08:50;;;;;;;16.08;11.82;;;;;;;-148.88;76.96;74457.16;4993393;28;20101;-86
2022/08/17 01:11:16;;;;;;;14.38;11.65;;;;;;;-148.88;76.05;74481.53;4993264;28;20066;-86
2022/08/17 01:13:43;;;;;;;13.13;10.70;;;;;;;-148.88;76.43;74485.59;4993621;28;20481;-86
2022/08/17 01:16:20;;;;;;;13.15;10.57;;;;;;;-148.88;75.12;74481.53;4993525;28;20026;-87
2022/08/17 01:18:48;;;;;;;14.60;12.05;;;;;;;-148.88;74.76;74469.34;4994573;28;20025;-86
2022/08/17 01:21:21;;;;;;;14.38;11.27;;;;;;;-148.88;75.00;74467.31;4993353;28;20110;-86
2022/08/17 01:23:46;;;;;;;14.27;11.20;;;;;;;-148.88;75.04;74465.28;4993375;28;20524;-87
2022/08/17 01:26:11;;;;;;;14.07;10.85;;;;;;;-148.88;75.25;74461.22;4993477;28;20035;-86
2022/08/17 01:28:38;;;;;;;12.40;10.55;;;;;;;-148.88;74.61;74447.00;4991890;28;20113;-86
2022/08/17 01:31:05;;;;;;;13.30;11.15;;;;;;;-148.88;75.08;74436.84;4991965;28;20038;-86
2022/08/17 01:33:31;;;;;;;14.48;12.02;;;;;;;-148.88;75.60;74455.13;4991863;28;20085;-86
2022/08/17 01:35:56;;;;;;;15.63;12.70;;;;;;;-148.88;76.42;74487.63;4992085;28;20046;-87
2022/08/17 01:38:23;;;;;;;17.10;12.90;;;;;;;-148.88;76.37;74489.66;4992971;28;20404;-86
2022/08/17 01:40:53;;;;;;;15.50;13.00;;;;;;;-148.88;77.29;74505.88;4993053;28;20026;-85
2022/08/17 01:43:25;;;;;;;14.35;12.73;;;;;;;-148.88;77.19;74509.94;4993235;28;20030;-86
2022/08/17 01:49:12;;;;;;;14.55;12.13;;;;;;;-148.88;76.38;74489.66;4993063;28;20081;-86
2022/08/17 01:51:38;;;;;;;13.07;11.70;;;;;;;-148.88;76.34;74481.53;4992721;28;20445;-86
2022/08/17 01:54:07;;;;;;;15.25;11.88;;;;;;;-148.88;76.92;74497.78;4991921;28;20026;-86
2022/08/17 01:56:35;;;;;;;15.27;12.73;;;;;;;-148.88;76.87;74495.75;4991504;28;20049;-87
2022/08/17 01:59:00;;;;;;;14.77;12.50;;;;;;;-148.88;77.15;74501.81;4991718;28;20093;-86
2022/08/17 02:01:29;;;;;;;13.38;11.98;;;;;;;-148.88;76.56;74497.78;4992665;28;20481;-86
2022/08/17 02:03:54;;;;;;;13.98;11.85;;;;;;;-148.88;76.80;74493.72;4991264;28;20030;-87
2022/08/17 02:06:20;;;;;;;12.55;11.32;;;;;;;-148.88;76.87;74495.75;4991520;28;20377;-87
2022/08/17 02:08:46;;;;;;;15.70;12.63;;;;;;;-148.88;77.12;74493.72;4992678;28;20022;-86
2022/08/17 02:11:16;;;;;;;13.82;12.20;;;;;;;-148.88;76.51;74497.78;4991484;28;20068;-86
2022/08/17 02:13:44;;;;;;;14.07;12.07;;;;;;;-148.88;76.59;74497.78;4992841;28;20089;-86
2022/08/17 02:16:09;;;;;;;15.35;12.55;;;;;;;-148.88;76.24;74505.88;4994653;28;20023;-87
2022/08/17 02:18:35;;;;;;;14.25;12.35;;;;;;;-148.88;76.99;74509.94;4996713;28;20386;-87
2022/08/17 02:21:01;;;;;;;14.48;12.65;;;;;;;-148.88;77.51;74509.94;4996429;28;20031;-86
2022/08/17 02:23:30;;;;;;;16.52;12.57;;;;;;;-148.88;77.82;74524.16;4996468;28;20029;-86
2022/08/17 02:25:58;;;;;;;14.18;11.75;;;;;;;-148.88;78.78;74522.13;4994975;28;20098;-86
2022/08/17 02:28:24;;;;;;;13.65;12.23;;;;;;;-148.88;79.02;74526.19;4996248;28;20032;-86
2022/08/17 02:30:49;;;;;;;14.25;12.75;;;;;;;-148.88;79.02;74536.34;4996482;28;20105;-87
2022/08/17 02:33:14;;;;;;;13.43;12.13;;;;;;;-148.88;79.56;74536.34;4996089;28;20378;-87
2022/08/17 02:35:41;;;;;;;14.02;12.05;;;;;;;-148.88;79.58;74546.50;4996181;28;20388;-86
2022/08/17 02:38:07;;;;;;;15.07;13.18;;;;;;;-148.88;79.81;74542.44;4995808;28;20022;-87
2022/08/17 02:40:33;;;;;;;13.63;11.90;;;;;;;-148.88;79.78;74550.56;4995551;28;20049;-86
2022/08/17 02:42:59;;;;;;;14.52;12.98;;;;;;;-148.88;79.66;74560.72;4995707;28;20474;-86
2022/08/17 02:45:25;;;;;;;13.77;12.30;;;;;;;-148.88;80.13;74554.63;4995889;28;20026;-86
2022/08/17 02:47:51;;;;;;;14.35;12.63;;;;;;;-148.88;80.40;74558.69;4995413;28;20501;-86
2022/08/17 02:50:19;;;;;;;15.05;13.45;;;;;;;-148.88;80.08;74558.69;4995851;28;20030;-86
2022/08/17 02:52:47;;;;;;;14.07;12.68;;;;;;;-148.88;79.90;74564.78;4995725;28;20061;-86
2022/08/17 02:55:19;;;;;;;14.70;13.20;;;;;;;-148.88;80.65;74566.81;4995893;28;20033;-86
2022/08/17 02:57:45;;;;;;;14.27;12.77;;;;;;;-148.88;80.45;74572.91;4995570;28;20030;-86
2022/08/17 03:00:17;;;;;;;15.07;13.57;;;;;;;-148.88;81.19;74570.88;4995504;28;20030;-86
2022/08/17 03:02:43;;;;;;;17.70;13.00;;;;;;;-148.88;80.87;74570.88;4994214;28;20153;-86
2022/08/17 03:05:10;;;;;;;15.93;12.52;;;;;;;-148.88;81.42;74568.84;4995427;28;20501;-86
2022/08/17 03:07:37;;;;;;;15.30;12.93;;;;;;;-148.88;81.42;74572.91;4995513;28;20445;-86
2022/08/17 03:10:04;;;;;;;15.68;13.40;;;;;;;-148.88;81.49;74576.97;4995420;28;20084;-86
2022/08/17 03:12:33;;;;;;;16.85;14.27;;;;;;;-148.88;82.26;74583.06;4995446;28;20022;-87
2022/08/17 03:15:02;;;;;;;13.85;12.43;;;;;;;-148.88;82.21;74579.00;4995583;28;20112;-84
2022/08/17 03:17:27;;;;;;;15.48;12.88;;;;;;;-148.88;81.83;74593.22;4995565;28;20112;-86
2022/08/17 03:19:53;;;;;;;15.93;13.93;;;;;;;-148.88;82.70;74605.38;4995353;28;20070;-87
2022/08/17 03:22:18;;;;;;;16.80;13.65;;;;;;;-148.88;83.13;74607.41;4995404;28;20047;-88
2022/08/17 03:24:43;;;;;;;19.27;14.18;;;;;;;-148.88;82.98;74605.38;4994666;28;20042;-87
2022/08/17 03:27:08;;;;;;;17.60;13.68;;;;;;;-148.88;82.91;74599.28;4994705;28;20031;-87
2022/08/17 03:29:34;;;;;;;15.27;12.95;;;;;;;-148.88;83.10;74597.25;4995452;28;20026;-87
2022/08/17 03:32:00;;;;;;;17.98;16.02;;;;;;;-148.88;82.45;74607.41;4995680;28;20027;-87
2022/08/17 03:34:26;;;;;;;19.05;16.67;;;;;;;-148.88;82.91;74599.28;4995393;28;20022;-87
2022/08/17 03:36:51;;;;;;;18.65;16.00;;;;;;;-148.88;83.08;74607.41;4994017;28;20403;-86
2022/08/17 03:39:17;;;;;;;18.33;16.40;;;;;;;-148.88;83.12;74615.53;4995440;28;20126;-86
2022/08/17 03:41:42;;;;;;;23.13;17.33;;;;;;;-148.88;84.57;74623.66;4995284;28;20477;-87
2022/08/17 03:44:07;;;;;;;20.27;17.40;;;;;;;-148.88;84.86;74643.97;4995375;28;20055;-86
2022/08/17 03:57:30;;;;;;;17.48;15.70;;;;;;;-148.88;84.36;74625.69;4995053;28;19916;-88
2022/08/17 03:59:55;;;;;;;18.13;15.10;;;;;;;-148.88;84.16;74627.72;4994992;28;20037;-87
2022/08/17 04:02:26;;;;;;;18.10;15.98;;;;;;;-148.88;84.57;74627.72;4994967;28;20030;-87
2022/08/17 04:04:52;;;;;;;16.80;15.00;;;;;;;-148.88;84.48;74621.63;4995072;28;20397;-87
2022/08/17 04:07:20;;;;;;;17.58;15.80;;;;;;;-148.88;84.69;74625.69;4994703;28;20111;-87
2022/08/17 04:09:45;;;;;;;19.30;17.23;;;;;;;-148.88;84.77;74623.66;4993397;28;20026;-87
2022/08/17 04:12:14;;;;;;;17.38;15.57;;;;;;;-148.88;84.57;74625.69;4994811;28;20588;-87
2022/08/17 04:14:40;;;;;;;17.20;15.50;;;;;;;-148.88;84.58;74635.84;4994717;28;20034;-86
2022/08/17 04:17:05;;;;;;;17.58;15.68;;;;;;;-148.88;84.66;74629.75;4994540;28;20037;-87
2022/08/17 04:19:30;;;;;;;19.02;17.00;;;;;;;-148.88;85.05;74635.84;4994489;28;20450;-87
2022/08/17 04:21:59;;;;;;;18.48;16.42;;;;;;;-148.88;85.36;74635.84;4994785;28;20022;-88
2022/08/17 04:24:25;;;;;;;19.77;16.48;;;;;;;-148.88;85.64;74639.91;4994848;28;20027;-84
2022/08/17 04:26:50;;;;;;;17.15;15.35;;;;;;;-148.88;85.49;74643.97;4994788;28;20034;-85
2022/08/17 04:29:16;;;;;;;18.50;16.63;;;;;;;-148.88;85.87;74643.97;4994516;28;20041;-85
2022/08/17 04:31:42;;;;;;;22.30;15.77;;;;;;;-148.88;85.46;74627.72;4994411;28;20061;-85
2022/08/17 04:34:08;;;;;;;18.73;15.45;;;;;;;-148.88;85.41;74639.91;4994263;28;20403;-86
2022/08/17 04:36:33;;;;;;;18.33;15.38;;;;;;;-148.88;86.02;74652.09;4994311;28;20022;-86
2022/08/17 04:38:59;;;;;;;18.55;16.02;;;;;;;-148.88;85.68;74648.03;4993551;28;20022;-87
2022/08/17 04:44:10;;;;;;;18.27;15.60;;;;;;;-148.88;86.04;74639.91;4994771;28;20108;-87
2022/08/17 04:46:35;;;;;;;21.02;16.02;;;;;;;-148.88;85.90;74639.91;4994268;28;20030;-86
2022/08/17 04:49:04;;;;;;;18.55;16.50;;;;;;;-148.88;85.93;74643.97;4993974;28;20446;-86
2022/08/17 04:51:34;;;;;;;19.38;15.80;;;;;;;-148.88;86.01;74643.97;4992821;28;20041;-87
2022/08/17 04:54:12;;;;;;;17.63;15.63;;;;;;;-148.88;85.83;74643.97;4993994;28;20097;-86
2022/08/17 04:56:38;;;;;;;18.42;15.05;;;;;;;-148.88;85.90;74639.91;4994207;28;20026;-86
2022/08/17 04:59:16;;;;;;;20.05;16.63;;;;;;;-148.88;86.03;74643.97;4993935;28;20040;-86
2022/08/17 05:01:44;;;;;;;17.75;14.48;;;;;;;-148.88;86.05;74635.84;4994012;28;20446;-86
2022/08/17 05:04:12;;;;;;;16.02;14.30;;;;;;;-148.88;86.11;74623.66;4994078;28;20029;-86
2022/08/17 05:06:37;;;;;;;16.02;13.80;;;;;;;-148.88;86.05;74623.66;4994127;28;20022;-86
2022/08/17 05:09:03;;;;;;;16.75;13.52;;;;;;;-148.88;85.96;74623.66;4994549;28;20026;-90
2022/08/17 05:11:32;;;;;;;16.08;14.35;;;;;;;-148.88;85.64;74611.47;4994778;28;20030;-90
2022/08/17 05:13:58;;;;;;;17.88;14.90;;;;;;;-148.88;85.22;74615.53;4994924;28;20030;-91
2022/08/17 05:16:25;;;;;;;15.65;13.95;;;;;;;-148.88;84.83;74609.44;4993620;28;20377;-90
2022/08/17 05:18:51;;;;;;;14.52;12.45;;;;;;;-148.88;84.66;74601.31;4993773;28;20432;-91
2022/08/17 05:21:17;;;;;;;15.68;14.00;;;;;;;-148.88;84.40;74599.28;4993044;28;20113;-90
2022/08/17 05:23:44;;;;;;;16.35;12.98;;;;;;;-148.88;84.31;74599.28;4993583;28;20022;-90
2022/08/17 05:26:12;;;;;;;14.73;13.18;;;;;;;-148.88;84.44;74599.28;4993090;28;20382;-91
2022/08/17 05:28:38;;;;;;;14.20;12.48;;;;;;;-148.88;84.04;74597.25;4993100;28;20030;-90
2022/08/17 05:31:04;;;;;;;15.35;13.73;;;;;;;-148.88;83.46;74597.25;4992828;28;20030;-91
2022/08/17 05:33:33;;;;;;;19.55;16.73;;;;;;;-148.88;84.68;74607.41;4993015;28;20026;-91
2022/08/17 05:36:00;;;;;;;21.33;18.95;;;;;;;-148.88;87.60;74635.84;4996209;28;20022;-91
2022/08/17 05:38:28;;;;;;;20.73;18.52;;;;;;;-148.88;88.45;74643.97;4996969;28;20041;-90
2022/08/17 05:40:53;;;;;;;21.85;18.75;;;;;;;-148.88;88.13;74627.72;4995860;28;20027;-90
2022/08/17 05:43:22;;;;;;;20.42;18.02;;;;;;;-148.88;88.63;74635.84;4994655;28;20092;-88
2022/08/17 05:46:01;;;;;;;21.10;18.83;;;;;;;-148.88;88.20;74635.84;4992638;28;20025;-88
2022/08/17 05:48:29;;;;;;;22.55;18.63;;;;;;;-148.88;88.01;74627.72;4992488;28;20045;-87
2022/08/17 05:51:30;;;;;;;23.38;19.75;;;;;;;-148.88;88.74;74631.78;4995641;28;20026;-88
2022/08/17 05:54:09;;;;;;;22.42;19.55;;;;;;;-148.88;88.69;74623.66;4964237;28;20038;-88
2022/08/17 05:56:58;;;;;;;20.45;18.25;;;;;;;-148.88;88.22;74613.50;4996344;28;20030;-88
2022/08/17 05:59:42;;;;;;;22.30;19.42;;;;;;;-148.88;89.38;74631.78;4996385;28;20022;-88
2022/08/17 06:02:35;;;;;;;22.77;19.45;;;;;;;-148.88;89.90;74631.78;4996218;28;20026;-88
2022/08/17 06:05:43;;;;;;;24.15;19.80;;;;;;;-148.88;89.08;74627.72;4996450;28;20027;-88
2022/08/17 06:08:53;;;;;;;21.27;18.10;;;;;;;-148.88;88.33;74613.50;4984051;28;20022;-88
2022/08/17 06:11:27;;;;;;;20.45;18.10;;;;;;;-148.88;88.27;74603.34;4920990;29;20027;-88
2022/08/17 06:14:03;;;;;;;21.58;19.27;;;;;;;-148.88;87.94;74599.28;4984325;28;20041;-88
2022/08/17 06:16:34;;;;;;;20.55;17.08;;;;;;;-148.88;86.91;74579.00;4996186;28;20080;-88
2022/08/17 06:19:31;;;;;;;18.65;16.63;;;;;;;-148.88;85.74;74576.97;4995595;28;20019;-88
2022/08/17 06:21:57;;;;;;;18.17;15.82;;;;;;;-148.88;84.09;74566.81;4986061;28;20469;-88
2022/08/17 06:24:33;;;;;;;18.83;16.25;;;;;;;-148.88;83.26;74558.69;4995478;28;20030;-88
2022/08/17 06:27:20;;;;;;;19.35;15.73;;;;;;;-148.88;83.24;74542.44;4995271;28;20109;-88
2022/08/17 06:29:51;;;;;;;19.35;15.98;;;;;;;-148.88;83.02;74518.06;4996874;28;20022;-88
2022/08/17 06:32:17;;;;;;;17.70;15.90;;;;;;;-148.88;82.97;74509.94;4995529;28;20114;-88
2022/08/17 06:34:44;;;;;;;19.60;15.32;;;;;;;-148.88;82.88;74499.81;4995448;28;20034;-88
2022/08/17 06:37:31;;;;;;;19.88;15.25;;;;;;;-148.88;83.30;74481.53;4995197;28;20027;-88
2022/08/17 06:40:09;;;;;;;16.55;14.20;;;;;;;-148.88;82.59;74471.38;4995078;28;20023;-88
2022/08/17 06:42:52;;;;;;;16.45;13.85;;;;;;;-148.88;81.95;74461.22;4995860;28;20081;-88
2022/08/17 06:45:25;;;;;;;18.67;14.45;;;;;;;-148.88;81.47;74442.94;4995337;28;20025;-88
2022/08/17 06:48:10;;;;;;;16.85;14.18;;;;;;;-148.88;80.59;74424.66;4995197;28;20077;-88
2022/08/17 06:50:41;;;;;;;17.00;15.10;;;;;;;-148.88;80.16;74418.56;4994968;28;20485;-88
2022/08/17 06:53:23;;;;;;;15.07;13.35;;;;;;;-148.88;78.81;74412.47;4996585;28;20068;-88
2022/08/17 06:56:05;;;;;;;16.08;13.68;;;;;;;-148.88;79.43;74400.31;4994943;28;20413;-88
2022/08/17 06:58:32;;;;;;;16.63;13.52;;;;;;;-148.88;78.62;74396.25;4994785;28;20050;-87
2022/08/17 07:01:05;;;;;;;14.55;12.68;;;;;;;-148.88;78.62;74384.06;4994358;28;20177;-88
2022/08/17 07:03:53;;;;;;;14.10;12.25;;;;;;;-148.88;78.42;74365.78;4996244;28;20417;-88
2022/08/17 07:06:22;;;;;;;15.00;13.40;;;;;;;-148.88;77.91;74347.50;4994728;28;20022;-88
2022/08/17 07:09:00;;;;;;;14.57;12.70;;;;;;;-148.88;77.61;74341.41;4994659;28;20018;-88
2022/08/17 07:11:44;;;;;;;15.85;13.32;;;;;;;-148.88;77.46;74325.19;4994682;28;20026;-88
2022/08/17 07:14:35;;;;;;;16.83;13.05;;;;;;;-148.88;77.68;74310.97;4994683;28;20081;-89
2022/08/17 07:17:04;;;;;;;18.52;13.65;;;;;;;-148.88;77.05;74290.66;4994448;28;20555;-88
2022/08/17 07:19:33;;;;;;;14.15;11.95;;;;;;;-148.88;76.22;74266.28;4994596;28;20026;-88
2022/08/17 07:22:21;;;;;;;12.52;11.13;;;;;;;-148.88;73.42;74246.00;4994648;28;20026;-89
2022/08/17 07:24:51;;;;;;;12.85;10.88;;;;;;;-148.88;74.02;74237.88;4994690;28;20022;-88
2022/08/17 07:27:35;;;;;;;13.57;11.55;;;;;;;-148.88;73.42;74229.75;4995649;28;20035;-88
2022/08/17 07:30:27;;;;;;;17.25;12.60;;;;;;;-148.88;73.31;74209.44;4996034;28;20135;-88
2022/08/17 07:33:07;;;;;;;13.40;11.38;;;;;;;-148.88;72.15;74197.25;4995697;28;20042;-88
2022/08/17 07:35:38;;;;;;;14.18;11.10;;;;;;;-148.88;71.40;74187.09;4994255;28;20073;-88
2022/08/17 07:38:17;;;;;;;15.52;11.63;;;;;;;-148.88;71.98;74185.06;4994550;28;20018;-88
2022/08/17 07:40:46;;;;;;;14.82;11.32;;;;;;;-148.88;72.27;74174.91;4994409;28;20063;-89
2022/08/17 07:43:22;;;;;;;15.82;10.80;;;;;;;-148.88;71.68;74168.84;4994548;28;20033;-89
2022/08/17 07:49:06;;;;;;;11.40;9.88;;;;;;;-148.88;68.63;74120.09;4994677;28;20041;-89
2022/08/17 07:51:35;;;;;;;;;;;;;;;-148.88;68.66;74107.91;4996070;28;20109;-88
2022/08/17 07:54:21;;;;;;;10.57;8.60;;;;;;;-148.88;67.74;74091.69;4995567;28;19916;-87
2022/08/17 07:56:47;;;;;;;10.68;8.65;;;;;;;-148.88;68.36;74079.50;4995236;28;20023;-88
2022/08/17 07:59:19;;;;;;;12.07;8.38;;;;;;;-148.88;67.76;74067.31;4993958;28;20111;-89
2022/08/17 08:01:57;;;;;;;12.40;8.25;;;;;;;-148.88;67.14;74042.94;4993976;28;20018;-89
2022/08/17 08:04:49;;;;;;;12.07;8.00;;;;;;;-148.88;65.68;74022.66;4994086;28;20023;-89
2022/08/17 08:07:15;;;;;;;10.60;7.40;;;;;;;-148.88;64.24;74012.50;4994403;28;20041;-89
2022/08/17 08:09:43;;;;;;;9.93;7.37;;;;;;;-148.88;63.18;73994.22;4994756;28;20385;-89
2022/08/17 08:12:32;;;;;;;12.98;7.20;;;;;;;-148.88;64.13;73982.03;4993619;28;20040;-89
2022/08/17 08:14:59;;;;;;;9.15;6.30;;;;;;;-148.88;63.73;73967.81;4993637;28;20026;-89
2022/08/17 08:17:34;;;;;;;9.13;6.03;;;;;;;-148.88;63.30;73949.56;4993607;28;20030;-89
2022/08/17 08:20:01;;;;;;;12.30;6.40;;;;;;;-148.88;61.19;73921.13;4994688;28;20161;-88
2022/08/17 08:22:57;;;;;;;10.70;6.43;;;;;;;-148.88;61.47;73913.00;4993611;28;20037;-88
2022/08/17 08:25:41;;;;;;;8.50;5.70;;;;;;;-148.88;59.78;73900.81;4994765;28;20041;-89
2022/08/17 08:28:36;;;;;;;8.50;5.75;;;;;;;-148.88;58.76;73900.81;4993378;28;20030;-88
2022/08/17 08:31:28;;;;;;;9.65;5.20;;;;;;;-148.88;59.61;73888.66;4994851;28;20447;-89
2022/08/17 08:34:17;;;;;;;7.15;5.25;;;;;;;-148.88;58.55;73876.47;4993269;28;20026;-89
2022/08/17 08:37:20;;;;;;;7.68;5.50;;;;;;;-148.88;57.70;73860.22;4993423;28;20032;-88
2022/08/17 08:40:19;;;;;;;9.23;5.40;;;;;;;-148.88;57.23;73852.09;4991406;28;20033;-88
2022/08/17 08:43:08;;;;;;;9.32;5.25;;;;;;;-148.88;57.42;73850.06;4993339;28;20026;-88
2022/08/17 08:45:59;;;;;;;8.35;5.32;;;;;;;-148.88;57.18;73843.97;4994792;28;20030;-89
2022/08/17 08:48:44;;;;;;;7.57;4.80;;;;;;;-148.88;56.94;73819.63;4992846;28;20054;-89
2022/08/17 08:51:48;;;;;;;7.28;4.72;;;;;;;-148.88;57.73;73791.19;4993089;28;20058;-89
2022/08/17 08:54:38;;;;;;;9.07;5.55;;;;;;;-148.88;58.71;73768.88;4992827;28;20072;-89
2022/08/17 08:57:17;;;;;;;7.93;5.25;;;;;;;-148.88;58.54;73758.72;4992969;28;20497;-88
2022/08/17 08:59:52;;;;;;;6.72;5.10;;;;;;;-148.88;57.32;73762.78;4992814;28;20022;-85
2022/08/17 09:02:42;;;;;;;10.05;5.63;;;;;;;-148.88;58.70;73744.50;4992791;28;20042;-86
2022/08/17 09:05:29;;;;;;;7.03;5.07;;;;;;;-148.88;56.60;73730.28;4992765;28;20412;-85
2022/08/17 09:08:23;;;;;;;8.10;5.22;;;;;;;-148.88;55.61;73714.03;4994822;28;20046;-85
2022/08/17 09:10:58;;;;;;;5.45;4.28;;;;;;;-148.88;54.55;73699.84;4994285;28;20373;-86
2022/08/17 09:13:33;;;;;;;6.70;4.57;;;;;;;-148.88;55.13;73689.69;4994066;28;20492;-85
2022/08/17 09:16:36;;;;;;;6.85;4.03;;;;;;;-148.88;52.86;73657.19;4994023;28;20081;-86
2022/08/17 09:19:18;;;;;;;6.13;4.30;;;;;;;-148.88;50.36;73622.69;4993825;28;20018;-88
2022/08/17 09:21:51;;;;;;;5.97;4.20;;;;;;;-148.88;51.67;73604.41;4992962;28;20489;-88
2022/08/17 09:24:19;;;;;;;;;;;;;;;-148.88;51.68;73586.16;4994995;28;20034;-88
2022/08/17 09:26:56;;;;;;;9.13;4.47;;;;;;;-148.88;49.81;73553.66;5000261;28;19914;-89
2022/08/17 09:29:25;;;;;;;6.75;4.22;;;;;;;-148.88;51.53;73519.16;5000205;28;20051;-88
2022/08/17 09:32:00;;;;;;;4.90;3.80;;;;;;;-148.88;47.08;73484.66;4998866;28;20109;-89
2022/08/17 09:34:33;;;;;;;5.72;4.15;;;;;;;-148.88;49.72;73448.09;5000485;28;20052;-89
2022/08/17 09:37:18;;;;;;;5.90;4.20;;;;;;;-148.88;46.11;73401.41;5000469;28;20026;-88
2022/08/17 09:39:54;;;;;;;6.00;4.40;;;;;;;-148.88;46.71;73375.03;5000581;28;20489;-88
2022/08/17 09:42:28;;;;;;;4.72;3.63;;;;;;;-148.88;45.04;73352.69;4999038;28;20026;-88
2022/08/17 09:45:21;;;;;;;5.00;3.75;;;;;;;-148.88;44.38;73356.75;4999039;28;20038;-88
2022/08/17 09:47:46;;;;;;;6.72;4.07;;;;;;;-148.88;42.93;73346.59;5000221;28;20026;-88
2022/08/17 09:50:31;;;;;;;5.93;3.60;;;;;;;-148.88;43.25;73328.34;4998964;28;20404;-88
2022/08/17 09:52:58;;;;;;;6.57;3.70;;;;;;;-148.88;43.58;73320.22;4998856;28;20276;-89
2022/08/17 09:55:51;;;;;;;4.80;4.05;;;;;;;-148.88;42.18;73316.16;4998859;28;20022;-87
2022/08/17 09:58:23;;;;;;;8.10;3.85;;;;;;;-148.88;44.08;73291.78;4998773;28;20485;-89
2022/08/17 10:01:00;;;;;;;7.77;3.97;;;;;;;-148.88;42.51;73281.66;4998958;28;20452;-87
2022/08/17 10:03:53;;;;;;;7.13;4.00;;;;;;;-148.88;42.78;73239.00;5000190;28;20034;-89
2022/08/17 10:06:25;;;;;;;5.80;3.42;;;;;;;-148.88;42.07;73245.09;5000172;28;20030;-89
2022/08/17 10:09:08;;;;;;;4.88;3.40;;;;;;;-148.88;41.69;73265.41;4998637;28;20420;-89
2022/08/17 10:14:27;;;;;;;6.30;3.60;;;;;;;-148.88;43.46;73330.38;4999841;28;20084;-89
2022/08/17 10:17:04;;;;;;;4.32;3.17;;;;;;;-148.88;42.69;73352.69;4998713;28;20030;-88
2022/08/17 10:19:38;;;;;;;4.75;3.33;;;;;;;-148.88;42.31;73377.06;4999363;28;20165;-89
2022/08/17 10:27:56;;;;;;;4.65;3.67;;;;;;;-148.88;43.00;73401.41;5092213;23;20572;-77
2022/08/17 10:30:25;;;;;;;5.50;3.90;;;;;;;-148.88;42.29;73405.47;4999760;28;20030;-77
2022/08/17 10:32:58;;;;;;;6.18;3.40;;;;;;;-148.88;43.26;73393.28;4998145;28;20033;-76
2022/08/17 10:35:36;;;;;;;4.35;3.40;;;;;;;-148.88;42.57;73401.41;4998471;28;20034;-76
2022/08/17 10:38:35;;;;;;;3.97;3.30;;;;;;;-148.88;42.19;73385.19;4994680;28;20033;-76
2022/08/17 10:41:19;;;;;;;5.60;3.28;;;;;;;-148.88;42.73;73377.06;4996484;28;20478;-76
2022/08/17 10:43:59;;;;;;;4.65;3.22;;;;;;;-148.88;43.48;73377.06;4996552;28;20331;-76
2022/08/17 10:46:38;;;;;;;4.22;3.58;;;;;;;-148.88;42.24;73381.13;4995145;28;20019;-75
2022/08/17 10:49:16;;;;;;;5.50;3.42;;;;;;;-148.88;44.97;73348.63;4996057;28;20508;-77
2022/08/17 10:51:48;;;;;;;7.88;3.30;;;;;;;-148.88;43.18;73328.34;4996198;28;20038;-76
2022/08/17 10:55:00;;;;;;;4.90;3.50;;;;;;;-148.88;42.49;73306.00;4996153;28;20448;-76
2022/08/17 10:57:25;;;;;;;4.88;3.20;;;;;;;-148.88;42.30;73297.88;4981166;28;20508;-76
2022/08/17 10:59:52;;;;;;;5.33;3.80;;;;;;;-148.88;42.15;73293.81;4996394;28;20034;-77
2022/08/17 11:02:53;;;;;;;4.22;3.03;;;;;;;-148.88;42.40;73273.53;4996094;28;20397;-77
2022/08/17 11:05:52;;;;;;;5.38;3.20;;;;;;;-148.88;41.38;73243.06;4996191;28;20397;-76
2022/08/17 11:08:32;;;;;;;5.38;3.42;;;;;;;-148.88;41.01;73218.72;4995827;28;20023;-75
2022/08/17 11:11:23;;;;;;;6.70;3.30;;;;;;;-148.88;40.08;73202.47;4994657;28;20026;-76
2022/08/17 11:14:22;;;;;;;6.38;3.30;;;;;;;-148.88;39.92;73198.41;4995829;28;20588;-77
2022/08/17 11:17:06;;;;;;;4.63;3.40;;;;;;;-148.88;39.02;73178.13;4995827;28;20023;-76
2022/08/17 11:19:44;;;;;;;7.38;3.55;;;;;;;-148.88;38.53;73178.13;4994547;28;20033;-77
2022/08/17 11:22:29;;;;;;;4.80;3.22;;;;;;;-148.88;38.61;73182.19;4996062;28;20026;-77
2022/08/17 11:25:07;;;;;;;5.32;3.00;;;;;;;-148.88;38.52;73210.59;4995962;28;20033;-75
2022/08/17 11:27:34;;;;;;;7.38;3.20;;;;;;;-148.88;39.27;73226.84;4994304;28;20026;-77
2022/08/17 11:30:12;;;;;;;6.07;3.10;;;;;;;-148.88;40.32;73232.94;4995713;28;20018;-75
2022/08/17 11:32:44;;;;;;;3.67;3.10;;;;;;;-148.88;39.44;73255.25;4995522;28;20031;-76
2022/08/17 11:35:38;;;;;;;4.10;2.70;;;;;;;-148.88;38.97;73259.31;4995431;28;20022;-76
2022/08/17 11:38:32;;;;;;;3.40;2.80;;;;;;;-148.88;39.23;73291.78;4995259;28;20040;-75
2022/08/17 11:41:29;;;;;;;4.38;3.05;;;;;;;-148.88;40.11;73312.09;4993930;28;20030;-76
2022/08/17 11:44:06;;;;;;;5.30;3.10;;;;;;;-148.88;40.19;73312.09;4995366;28;20084;-77
2022/08/17 11:52:50;;;;;;;4.28;2.92;;;;;;;-148.88;40.65;73352.69;4995586;28;20037;-77
2022/08/17 11:55:27;;;;;;;4.38;2.80;;;;;;;-148.88;41.63;73358.78;4993678;28;20027;-76
2022/08/17 11:57:59;;;;;;;5.05;2.70;;;;;;;-148.88;40.78;73354.72;4995174;28;20101;-76
2022/08/17 12:01:01;;;;;;;7.35;3.33;;;;;;;-148.88;40.28;73364.88;4995281;28;20030;-76
2022/08/17 12:03:30;;;;;;;4.65;2.70;;;;;;;-148.88;39.96;73368.94;4919146;29;20031;-76
2022/08/17 12:06:05;;;;;;;4.13;3.00;;;;;;;-148.88;40.06;73375.03;4979859;28;20101;-76
2022/08/17 12:08:33;;;;;;;4.55;3.00;;;;;;;-148.88;40.07;73383.16;4994623;28;20030;-77
2022/08/17 12:11:27;;;;;;;3.97;2.80;;;;;;;-148.88;40.33;73387.19;4993394;28;20085;-77
2022/08/17 12:13:57;;;;;;;8.73;3.05;;;;;;;-148.88;41.42;73399.38;4991638;28;20132;-77